Milwaukee (MKE/KMKE)

Information

Location
Milwaukee, WI
Local Time
17:42 / 5:42 pm
GMT Time
23:42 / 11:42 pm
Gates
C9
No FAA reported delays
METAR KMKE 182252Z 24009KT 10SM FEW250 00/M07 A2992 RMK AO2 SLP140 T00001072
TAF KMKE 182106Z 1821/1924 24014G25KT P6SM SKC FM182300 24012KT P6SM SKC FM190100 24009KT P6SM SKC WS015/24040KT FM191000 24010KT P6SM SKC FM191600 22010G20KT P6SM SCT150